createdAt,value
2022-11-26T00:00:59.359Z,8.30
2022-11-26T00:03:25.967Z,7.43
2022-11-26T00:05:56.639Z,8.20
2022-11-26T00:08:30.299Z,7.57
2022-11-26T00:10:56.837Z,8.50
2022-11-26T00:13:26.741Z,7.50
2022-11-26T00:15:53.884Z,8.07
2022-11-26T00:18:23.439Z,8.50
2022-11-26T00:20:59.769Z,7.47
2022-11-26T00:23:28.458Z,7.40
2022-11-26T00:26:04.029Z,8.00
2022-11-26T00:28:37.306Z,7.77
2022-11-26T00:31:12.847Z,6.80
2022-11-26T00:33:39.448Z,8.83
2022-11-26T00:36:25.322Z,7.57
2022-11-26T00:38:56.763Z,8.40
2022-11-26T00:41:26.195Z,7.90
2022-11-26T00:43:52.870Z,7.77
2022-11-26T00:46:22.704Z,7.90
2022-11-26T00:48:49.533Z,8.00
2022-11-26T00:51:36.654Z,7.17
2022-11-26T00:54:04.187Z,7.50
2022-11-26T00:56:36.489Z,8.37
2022-11-26T00:59:04.459Z,7.93
2022-11-26T01:01:32.861Z,7.70
2022-11-26T01:03:59.559Z,7.70
2022-11-26T01:06:32.766Z,7.03
2022-11-26T01:08:59.593Z,7.27
2022-11-26T01:11:26.566Z,7.80
2022-11-26T01:13:54.709Z,7.53
2022-11-26T01:16:30.420Z,7.97
2022-11-26T01:18:59.959Z,7.53
2022-11-26T01:21:29.849Z,7.30
2022-11-26T01:23:57.214Z,6.70
2022-11-26T01:26:27.550Z,7.30
2022-11-26T01:28:55.247Z,7.27
2022-11-26T01:31:25.679Z,7.70
2022-11-26T01:33:52.627Z,7.50
2022-11-26T01:36:24.929Z,7.33
2022-11-26T01:38:56.765Z,7.47
2022-11-26T01:41:48.317Z,7.30
2022-11-26T01:44:20.920Z,7.73
2022-11-26T01:46:48.432Z,7.90
2022-11-26T01:49:23.383Z,6.80
2022-11-26T01:52:19.957Z,7.00
2022-11-26T01:54:47.440Z,6.93
2022-11-26T01:57:33.996Z,7.07
2022-11-26T02:00:04.200Z,6.40
2022-11-26T02:02:30.882Z,6.30
2022-11-26T02:05:09.467Z,7.03
2022-11-26T02:07:36.821Z,6.40
2022-11-26T02:10:04.004Z,6.40
2022-11-26T02:12:30.858Z,6.63
2022-11-26T02:14:57.380Z,5.83
2022-11-26T02:17:39.685Z,6.73
2022-11-26T02:20:35.359Z,7.33
2022-11-26T02:23:20.350Z,6.40
2022-11-26T02:26:01.903Z,6.60
2022-11-26T02:28:50.166Z,6.77
2022-11-26T02:31:25.933Z,6.97
2022-11-26T02:34:00.126Z,6.77
2022-11-26T02:36:42.744Z,7.03
2022-11-26T02:39:12.240Z,6.27
2022-11-26T02:41:44.497Z,6.67
2022-11-26T02:44:12.151Z,6.20
2022-11-26T02:46:40.646Z,7.60
2022-11-26T02:49:11.207Z,6.90
2022-11-26T02:51:38.899Z,6.90
2022-11-26T02:54:08.656Z,6.93
2022-11-26T02:56:36.402Z,6.20
2022-11-26T02:59:04.338Z,6.13
2022-11-26T03:01:38.445Z,7.17
2022-11-26T03:04:16.151Z,6.67
2022-11-26T03:06:43.194Z,6.40
2022-11-26T03:09:09.821Z,6.77
2022-11-26T03:11:36.298Z,6.40
2022-11-26T03:14:02.850Z,6.30
2022-11-26T03:16:30.291Z,7.00
2022-11-26T03:18:56.823Z,6.73
2022-11-26T03:21:23.696Z,6.60
2022-11-26T03:23:50.139Z,7.40
2022-11-26T03:26:16.751Z,7.17
2022-11-26T03:28:43.285Z,6.87
2022-11-26T03:31:09.953Z,6.67
2022-11-26T03:33:36.473Z,6.40
2022-11-26T03:36:03.003Z,7.53
2022-11-26T03:38:29.495Z,6.93
2022-11-26T03:41:01.439Z,7.00
2022-11-26T03:43:28.078Z,6.70
2022-11-26T03:45:54.687Z,6.70
2022-11-26T03:48:21.547Z,7.63
2022-11-26T03:50:48.041Z,7.37
2022-11-26T03:53:14.580Z,7.30
2022-11-26T03:55:41.025Z,7.00
2022-11-26T03:58:07.488Z,7.27
2022-11-26T04:00:34.436Z,7.13
2022-11-26T04:03:01.094Z,7.57
2022-11-26T04:05:27.858Z,7.57
2022-11-26T04:07:54.412Z,8.00
2022-11-26T04:10:21.251Z,8.07
2022-11-26T04:12:47.794Z,8.13
2022-11-26T04:15:14.392Z,8.23
2022-11-26T04:17:41.276Z,8.07
2022-11-26T04:20:08.408Z,8.27
2022-11-26T04:22:34.837Z,7.53
2022-11-26T04:25:01.738Z,8.50
2022-11-26T04:27:28.256Z,8.10
2022-11-26T04:29:54.739Z,8.87
2022-11-26T04:32:21.650Z,7.87
2022-11-26T04:34:48.143Z,8.67
2022-11-26T04:37:14.799Z,7.10
2022-11-26T04:39:41.318Z,7.53
2022-11-26T04:42:08.066Z,8.53
2022-11-26T04:44:34.636Z,7.90
2022-11-26T04:47:01.317Z,8.37
2022-11-26T04:49:27.840Z,7.77
2022-11-26T04:51:54.274Z,7.20
2022-11-26T04:54:20.891Z,9.10
2022-11-26T04:56:47.392Z,7.50
2022-11-26T04:59:13.927Z,7.43
2022-11-26T05:01:40.477Z,7.60
2022-11-26T05:04:06.966Z,7.03
2022-11-26T05:06:33.574Z,7.10
2022-11-26T05:09:00.095Z,7.23
2022-11-26T05:11:26.594Z,6.90
2022-11-26T05:13:53.025Z,7.93
2022-11-26T05:16:19.462Z,7.93
2022-11-26T05:18:46.341Z,7.00
2022-11-26T05:21:12.942Z,6.97
2022-11-26T05:23:39.378Z,6.57
2022-11-26T05:26:06.027Z,6.80
2022-11-26T05:28:32.500Z,6.33
2022-11-26T05:31:02.984Z,7.53
2022-11-26T05:33:30.172Z,7.00
2022-11-26T05:35:56.716Z,7.23
2022-11-26T05:38:23.551Z,7.07
2022-11-26T05:40:50.113Z,7.20
2022-11-26T05:43:16.940Z,7.17
2022-11-26T05:45:43.686Z,7.10
2022-11-26T05:48:10.246Z,7.13
2022-11-26T05:50:36.742Z,7.27
2022-11-26T05:53:03.251Z,6.33
2022-11-26T05:55:29.976Z,6.93
2022-11-26T05:57:56.495Z,6.93
2022-11-26T06:00:23.295Z,6.97
2022-11-26T06:02:49.891Z,6.33
2022-11-26T06:05:16.630Z,6.97
2022-11-26T06:07:44.979Z,7.30
2022-11-26T06:10:12.969Z,7.50
2022-11-26T06:12:39.445Z,7.37
2022-11-26T06:15:06.578Z,6.63
2022-11-26T06:17:33.071Z,7.10
2022-11-26T06:19:59.913Z,6.97
2022-11-26T06:22:26.366Z,7.17
2022-11-26T06:24:52.957Z,7.30
2022-11-26T06:27:19.424Z,7.20
2022-11-26T06:29:45.860Z,6.90
2022-11-26T06:32:12.370Z,7.33
2022-11-26T06:34:39.250Z,7.07
2022-11-26T06:37:06.653Z,8.00
2022-11-26T06:39:33.138Z,8.10
2022-11-26T06:41:59.551Z,7.50
2022-11-26T06:44:25.976Z,8.17
2022-11-26T06:46:52.435Z,8.00
2022-11-26T06:49:18.903Z,8.23
2022-11-26T06:51:45.321Z,8.77
2022-11-26T06:54:11.786Z,7.63
2022-11-26T06:56:39.430Z,7.30
2022-11-26T06:59:05.875Z,7.83
2022-11-26T07:01:32.466Z,7.57
2022-11-26T07:03:59.683Z,7.80
2022-11-26T07:06:28.562Z,7.83
2022-11-26T07:08:57.572Z,8.23
2022-11-26T07:11:25.155Z,7.60
2022-11-26T07:13:52.430Z,8.70
2022-11-26T07:16:19.034Z,9.07
2022-11-26T07:18:50.742Z,9.50
2022-11-26T07:21:17.976Z,8.53
2022-11-26T07:23:44.419Z,7.80
2022-11-26T07:26:12.930Z,8.40
2022-11-26T07:28:40.072Z,9.50
2022-11-26T07:31:16.453Z,7.97
2022-11-26T07:33:43.661Z,7.63
2022-11-26T07:36:16.377Z,9.47
2022-11-26T07:38:42.817Z,8.97
2022-11-26T07:41:12.380Z,8.10
2022-11-26T07:43:41.092Z,9.33
2022-11-26T07:46:09.662Z,9.03
2022-11-26T07:48:37.026Z,9.47
2022-11-26T07:51:04.346Z,9.40
2022-11-26T07:53:32.025Z,9.30
2022-11-26T07:55:59.034Z,7.60
2022-11-26T07:58:26.917Z,8.93
2022-11-26T08:00:55.002Z,8.63
2022-11-26T08:03:22.059Z,8.33
2022-11-26T08:05:48.493Z,9.00
2022-11-26T08:08:14.983Z,8.27
2022-11-26T08:10:41.558Z,8.17
2022-11-26T08:13:08.221Z,8.50
2022-11-26T08:15:35.590Z,8.47
2022-11-26T08:18:02.060Z,8.10
2022-11-26T08:20:31.037Z,7.63
2022-11-26T08:22:57.468Z,8.13
2022-11-26T08:25:23.953Z,7.73
2022-11-26T08:27:50.426Z,7.70
2022-11-26T08:30:17.176Z,7.80
2022-11-26T08:32:43.701Z,8.37
2022-11-26T08:35:10.141Z,8.03
2022-11-26T08:37:36.843Z,8.27
2022-11-26T08:40:04.087Z,7.70
2022-11-26T08:42:30.977Z,7.93
2022-11-26T08:44:57.445Z,7.83
2022-11-26T08:47:23.930Z,7.57
2022-11-26T08:49:50.367Z,7.63
2022-11-26T08:52:16.871Z,7.40
2022-11-26T08:54:45.244Z,7.27
2022-11-26T08:57:12.422Z,7.27
2022-11-26T08:59:38.887Z,7.87
2022-11-26T09:02:05.432Z,7.87
2022-11-26T09:04:32.163Z,8.33
2022-11-26T09:06:58.596Z,7.53
2022-11-26T09:09:25.358Z,7.53
2022-11-26T09:11:56.497Z,7.80
2022-11-26T09:14:25.120Z,6.63
2022-11-26T09:16:52.486Z,6.93
2022-11-26T09:19:19.125Z,6.57
2022-11-26T09:21:46.605Z,7.13
2022-11-26T09:24:13.802Z,6.90
2022-11-26T09:26:40.740Z,6.63
2022-11-26T09:29:07.308Z,7.13
2022-11-26T09:31:34.130Z,6.20
2022-11-26T09:34:02.522Z,6.87
2022-11-26T09:36:29.327Z,6.90
2022-11-26T09:38:57.761Z,6.67
2022-11-26T09:41:24.171Z,7.40
2022-11-26T09:44:21.149Z,6.47
2022-11-26T09:47:13.084Z,6.53
2022-11-26T09:49:57.977Z,6.53
2022-11-26T09:52:30.466Z,6.20
2022-11-26T09:55:21.899Z,6.13
2022-11-26T09:57:59.241Z,6.70
2022-11-26T10:00:48.006Z,6.73
2022-11-26T10:03:17.160Z,5.77
2022-11-26T10:06:24.866Z,5.83
2022-11-26T10:09:13.177Z,5.73
2022-11-26T10:11:58.889Z,6.20
2022-11-26T10:15:02.174Z,5.80
2022-11-26T10:17:39.720Z,5.80
2022-11-26T10:20:32.803Z,6.37
2022-11-26T10:23:07.624Z,6.27
2022-11-26T10:25:40.255Z,5.73
2022-11-26T10:28:20.068Z,5.40
2022-11-26T10:31:02.662Z,6.33
2022-11-26T10:33:34.021Z,6.20
2022-11-26T10:36:00.741Z,6.00
2022-11-26T10:38:27.375Z,5.53
2022-11-26T10:40:53.966Z,6.17
2022-11-26T10:43:24.622Z,6.00
2022-11-26T10:45:54.459Z,5.33
2022-11-26T10:48:24.009Z,5.67
2022-11-26T10:51:14.179Z,5.87
2022-11-26T10:53:57.055Z,6.27
2022-11-26T10:56:36.746Z,6.00
2022-11-26T10:59:13.771Z,5.27
2022-11-26T11:01:40.594Z,5.67
2022-11-26T11:04:26.224Z,6.43
2022-11-26T11:06:53.107Z,5.83
2022-11-26T11:09:25.786Z,5.83
2022-11-26T11:12:16.250Z,5.40
2022-11-26T11:14:45.648Z,5.70
2022-11-26T11:17:36.189Z,6.13
2022-11-26T11:20:27.297Z,6.57
2022-11-26T11:23:00.371Z,5.90
2022-11-26T11:25:30.991Z,5.70
2022-11-26T11:28:10.517Z,6.20
2022-11-26T11:30:40.445Z,6.83
2022-11-26T11:33:23.242Z,7.17
2022-11-26T11:36:14.000Z,6.47
2022-11-26T11:38:52.299Z,7.30
2022-11-26T11:41:25.080Z,6.70
2022-11-26T11:43:58.673Z,6.57
2022-11-26T11:46:46.270Z,6.57
2022-11-26T11:49:28.737Z,6.03
2022-11-26T11:52:07.013Z,6.93
2022-11-26T11:54:54.418Z,6.33
2022-11-26T11:57:32.661Z,5.90
2022-11-26T12:00:13.607Z,6.00
2022-11-26T12:03:10.592Z,6.13
2022-11-26T12:05:40.237Z,6.73
2022-11-26T12:08:41.271Z,5.80
2022-11-26T12:11:18.839Z,6.43
2022-11-26T12:13:54.993Z,6.33
2022-11-26T12:16:25.908Z,6.20
2022-11-26T12:18:59.186Z,6.70
2022-11-26T12:21:40.091Z,5.90
2022-11-26T12:24:09.297Z,6.30
2022-11-26T12:26:48.490Z,6.40
2022-11-26T12:29:40.681Z,6.63
2022-11-26T12:32:07.203Z,6.87
2022-11-26T12:34:41.223Z,6.07
2022-11-26T12:37:20.049Z,6.60
2022-11-26T12:39:57.497Z,5.93
2022-11-26T12:43:05.876Z,5.50
2022-11-26T12:45:41.359Z,6.67
2022-11-26T12:48:25.868Z,6.07
2022-11-26T12:51:06.856Z,6.80
2022-11-26T12:53:52.302Z,5.40
2022-11-26T12:56:31.197Z,5.77
2022-11-26T12:59:25.742Z,5.87
2022-11-26T13:01:52.556Z,5.60
2022-11-26T13:04:37.985Z,6.10
2022-11-26T13:07:41.993Z,6.20
2022-11-26T13:10:20.682Z,6.33
2022-11-26T13:12:50.129Z,7.07
2022-11-26T13:15:31.597Z,6.10
2022-11-26T13:18:00.583Z,5.80
2022-11-26T13:20:30.005Z,5.83
2022-11-26T13:23:02.585Z,5.57
2022-11-26T13:25:50.440Z,5.13
2022-11-26T13:28:48.412Z,5.57
2022-11-26T13:31:27.271Z,5.20
2022-11-26T13:34:40.244Z,5.97
2022-11-26T13:37:06.926Z,5.67
2022-11-26T13:39:36.091Z,5.83
2022-11-26T13:42:21.413Z,5.87
2022-11-26T13:45:03.428Z,5.60
2022-11-26T13:47:48.867Z,5.10
2022-11-26T13:50:21.449Z,5.50
2022-11-26T13:52:58.912Z,5.53
2022-11-26T13:55:34.819Z,5.33
2022-11-26T13:58:06.248Z,5.67
2022-11-26T14:00:34.962Z,5.17
2022-11-26T14:03:03.204Z,5.43
2022-11-26T14:05:51.702Z,5.10
2022-11-26T14:08:41.486Z,4.80
2022-11-26T14:11:09.392Z,5.27
2022-11-26T14:13:36.471Z,5.07
2022-11-26T14:16:09.143Z,4.60
2022-11-26T14:18:51.851Z,4.53
2022-11-26T14:21:20.280Z,4.23
2022-11-26T14:23:48.018Z,4.50
2022-11-26T14:26:40.133Z,4.20
2022-11-26T14:29:17.618Z,4.67
2022-11-26T14:31:53.504Z,5.37
2022-11-26T14:34:39.764Z,4.50
2022-11-26T14:37:14.368Z,4.30
2022-11-26T14:39:43.839Z,4.17
2022-11-26T14:42:17.814Z,3.90
2022-11-26T14:44:44.742Z,4.70
2022-11-26T14:47:19.897Z,4.57
2022-11-26T14:49:54.341Z,4.63
2022-11-26T14:52:37.157Z,4.30
2022-11-26T14:55:08.445Z,4.77
2022-11-26T14:58:09.191Z,4.80
2022-11-26T15:00:36.722Z,4.50
2022-11-26T15:03:04.087Z,4.50
2022-11-26T15:05:33.321Z,3.93
2022-11-26T15:08:04.179Z,4.33
2022-11-26T15:10:37.679Z,4.50
2022-11-26T15:13:23.782Z,5.17
2022-11-26T15:15:55.497Z,3.70
2022-11-26T15:18:29.117Z,4.90
2022-11-26T15:20:56.348Z,4.60
2022-11-26T15:23:33.461Z,4.10
2022-11-26T15:26:00.981Z,4.60
2022-11-26T15:28:28.442Z,4.30
2022-11-26T15:31:00.502Z,4.67
2022-11-26T15:33:30.049Z,4.57
2022-11-26T15:35:59.416Z,4.43
2022-11-26T15:38:31.226Z,4.20
2022-11-26T15:40:57.665Z,4.10
2022-11-26T15:43:30.120Z,4.63
2022-11-26T15:46:14.515Z,4.50
2022-11-26T15:48:53.388Z,4.13
2022-11-26T15:51:43.577Z,4.47
2022-11-26T15:54:19.148Z,4.30
2022-11-26T15:56:50.241Z,4.10
2022-11-26T15:59:17.337Z,4.17
2022-11-26T16:01:45.951Z,3.80
2022-11-26T16:04:51.792Z,4.33
2022-11-26T16:07:19.860Z,4.17
2022-11-26T16:09:47.713Z,4.37
2022-11-26T16:12:34.799Z,5.00
2022-11-26T16:15:27.735Z,4.00
2022-11-26T16:17:54.215Z,3.93
2022-11-26T16:20:23.845Z,4.47
2022-11-26T16:22:53.081Z,5.00
2022-11-26T16:25:25.474Z,4.30
2022-11-26T16:28:03.524Z,4.60
2022-11-26T16:30:30.275Z,4.50
2022-11-26T16:32:56.831Z,4.10
2022-11-26T16:35:44.582Z,4.53
2022-11-26T16:38:26.398Z,4.90
2022-11-26T16:40:54.264Z,5.43
2022-11-26T16:43:20.926Z,4.90
2022-11-26T16:45:49.627Z,4.50
2022-11-26T16:48:23.228Z,4.80
2022-11-26T16:50:49.771Z,5.03
2022-11-26T16:53:16.200Z,4.43
2022-11-26T16:55:42.755Z,4.33
2022-11-26T16:58:19.576Z,4.30
2022-11-26T17:00:46.548Z,3.70
2022-11-26T17:03:14.637Z,3.77
2022-11-26T17:05:41.760Z,4.07
2022-11-26T17:08:11.572Z,4.33
2022-11-26T17:10:39.664Z,4.50
2022-11-26T17:13:06.359Z,4.57
2022-11-26T17:15:32.949Z,4.50
2022-11-26T17:18:07.669Z,4.60
2022-11-26T17:20:34.116Z,3.97
2022-11-26T17:23:00.579Z,4.83
2022-11-26T17:25:27.093Z,4.73
2022-11-26T17:27:53.594Z,4.27
2022-11-26T17:30:22.444Z,4.77
2022-11-26T17:32:49.342Z,4.23
2022-11-26T17:35:16.939Z,4.47
2022-11-26T17:37:43.862Z,4.57
2022-11-26T17:40:30.185Z,4.57
2022-11-26T17:42:56.726Z,4.40
2022-11-26T17:45:23.275Z,4.60
2022-11-26T17:47:50.183Z,3.97
2022-11-26T17:50:28.970Z,4.77
2022-11-26T17:52:55.962Z,3.63
2022-11-26T17:55:24.302Z,4.00
2022-11-26T17:57:51.272Z,3.80
2022-11-26T18:00:21.606Z,4.03
2022-11-26T18:02:48.482Z,4.03
2022-11-26T18:05:14.969Z,4.17
2022-11-26T18:07:41.584Z,4.53
2022-11-26T18:10:14.150Z,4.20
2022-11-26T18:12:41.133Z,3.97
2022-11-26T18:15:07.967Z,4.57
2022-11-26T18:17:34.445Z,4.40
2022-11-26T18:20:00.973Z,4.30
2022-11-26T18:22:28.299Z,4.50
2022-11-26T18:24:57.354Z,4.03
2022-11-26T18:27:28.800Z,4.13
2022-11-26T18:29:55.605Z,3.87
2022-11-26T18:32:22.567Z,4.07
2022-11-26T18:34:50.565Z,4.67
2022-11-26T18:37:17.543Z,3.77
2022-11-26T18:39:44.008Z,5.00
2022-11-26T18:44:58.232Z,4.33
2022-11-26T18:47:24.857Z,4.77
2022-11-26T18:49:51.358Z,4.47
2022-11-26T18:52:17.896Z,4.20
2022-11-26T18:54:44.375Z,4.63
2022-11-26T18:57:10.818Z,4.60
2022-11-26T18:59:37.702Z,4.63
2022-11-26T19:02:04.870Z,4.17
2022-11-26T19:04:31.477Z,4.50
2022-11-26T19:06:57.917Z,4.97
2022-11-26T19:09:24.416Z,4.67
2022-11-26T19:11:58.302Z,4.83
2022-11-26T19:14:25.063Z,4.47
2022-11-26T19:16:51.935Z,4.90
2022-11-26T19:19:18.550Z,4.47
2022-11-26T19:21:45.013Z,4.23
2022-11-26T19:24:12.622Z,4.30
2022-11-26T19:26:41.277Z,5.13
2022-11-26T19:29:09.135Z,4.70
2022-11-26T19:31:39.011Z,5.00
2022-11-26T19:34:12.507Z,4.57
2022-11-26T19:36:39.353Z,4.03
2022-11-26T19:39:06.996Z,3.90
2022-11-26T19:41:33.758Z,5.13
2022-11-26T19:44:01.046Z,4.47
2022-11-26T19:46:27.915Z,4.30
2022-11-26T19:48:55.656Z,4.30
2022-11-26T19:51:24.473Z,3.70
2022-11-26T19:53:53.670Z,4.27
2022-11-26T19:56:30.995Z,4.97
2022-11-26T19:58:58.982Z,3.90
2022-11-26T20:01:27.450Z,4.50
2022-11-26T20:03:54.217Z,4.80
2022-11-26T20:06:26.258Z,4.73
2022-11-26T20:08:53.347Z,4.47
2022-11-26T20:11:20.207Z,4.07
2022-11-26T20:13:48.798Z,4.50
2022-11-26T20:16:19.380Z,4.07
2022-11-26T20:18:46.697Z,3.87
2022-11-26T20:21:15.411Z,4.27
2022-11-26T20:23:42.703Z,3.80
2022-11-26T20:26:30.326Z,4.03
2022-11-26T20:29:00.827Z,3.90
2022-11-26T20:31:27.596Z,3.77
2022-11-26T20:33:54.873Z,4.10
2022-11-26T20:36:23.201Z,3.50
2022-11-26T20:38:54.556Z,4.63
2022-11-26T20:41:22.161Z,4.20
2022-11-26T20:43:53.535Z,4.07
2022-11-26T20:46:23.535Z,4.37
2022-11-26T20:48:50.206Z,4.23
2022-11-26T20:51:19.324Z,4.13
2022-11-26T20:53:50.510Z,3.97
2022-11-26T20:56:19.216Z,5.03
2022-11-26T20:58:46.169Z,3.87
2022-11-26T21:01:22.565Z,3.80
2022-11-26T21:03:50.224Z,3.70
2022-11-26T21:06:18.929Z,3.63
2022-11-26T21:08:45.822Z,4.50
2022-11-26T21:11:13.439Z,3.90
2022-11-26T21:13:40.641Z,4.87
2022-11-26T21:16:11.687Z,4.87
2022-11-26T21:18:38.492Z,4.50
2022-11-26T21:21:13.311Z,4.50
2022-11-26T21:23:40.784Z,3.83
2022-11-26T21:26:09.832Z,4.20
2022-11-26T21:28:36.827Z,3.93
2022-11-26T21:31:14.474Z,4.13
2022-11-26T21:33:41.013Z,4.00
2022-11-26T21:36:13.750Z,4.30
2022-11-26T21:38:43.622Z,4.17
2022-11-26T21:41:12.647Z,4.27
2022-11-26T21:43:44.109Z,4.47
2022-11-26T21:46:15.816Z,4.00
2022-11-26T21:48:42.514Z,3.57
2022-11-26T21:51:15.518Z,4.43
2022-11-26T21:53:42.824Z,4.30
2022-11-26T21:56:16.600Z,4.90
2022-11-26T21:58:43.621Z,4.83
2022-11-26T22:01:24.683Z,4.07
2022-11-26T22:03:56.865Z,4.57
2022-11-26T22:06:24.267Z,4.07
2022-11-26T22:08:51.265Z,4.43
2022-11-26T22:11:23.777Z,4.03
2022-11-26T22:13:51.420Z,3.77
2022-11-26T22:16:20.934Z,4.03
2022-11-26T22:18:48.461Z,4.70
2022-11-26T22:21:19.026Z,3.93
2022-11-26T22:23:46.085Z,3.67
2022-11-26T22:26:12.731Z,3.80
2022-11-26T22:28:39.707Z,4.30
2022-11-26T22:31:09.460Z,4.03
2022-11-26T22:33:35.939Z,4.70
2022-11-26T22:36:02.691Z,4.07
2022-11-26T22:38:29.141Z,4.23
2022-11-26T22:41:00.274Z,4.10
2022-11-26T22:43:26.710Z,4.10
2022-11-26T22:45:53.250Z,4.17
2022-11-26T22:48:19.716Z,4.13
2022-11-26T22:50:53.647Z,3.93
2022-11-26T22:53:21.301Z,4.07
2022-11-26T22:55:55.990Z,4.60
2022-11-26T22:58:24.321Z,4.07
2022-11-26T23:00:54.092Z,4.50
2022-11-26T23:03:20.861Z,4.20
2022-11-26T23:05:47.865Z,4.03
2022-11-26T23:08:15.433Z,3.97
2022-11-26T23:10:42.391Z,4.30
2022-11-26T23:13:13.597Z,3.93
2022-11-26T23:15:44.668Z,3.50
2022-11-26T23:18:13.513Z,4.60
2022-11-26T23:20:40.436Z,3.60
2022-11-26T23:23:07.043Z,3.97
2022-11-26T23:25:38.454Z,3.70
2022-11-26T23:28:06.905Z,4.17
2022-11-26T23:30:34.510Z,4.17
2022-11-26T23:33:01.192Z,3.10
2022-11-26T23:35:28.009Z,3.50
2022-11-26T23:37:54.440Z,4.20
2022-11-26T23:40:20.953Z,3.83
2022-11-26T23:42:47.551Z,3.83
2022-11-26T23:45:13.984Z,3.60
2022-11-26T23:47:40.420Z,3.60
2022-11-26T23:50:07.816Z,4.00
2022-11-26T23:52:35.710Z,5.23
2022-11-26T23:55:02.280Z,3.67
2022-11-26T23:57:28.761Z,4.03
2022-11-26T23:59:55.191Z,3.20
